createdAt,value
2022-11-11T00:02:42.099Z,102835.09
2022-11-11T00:05:28.464Z,102836.03
2022-11-11T00:08:14.117Z,102832.47
2022-11-11T00:11:12.787Z,102836.19
2022-11-11T00:13:58.286Z,102841.56
2022-11-11T00:17:02.286Z,102840.78
2022-11-11T00:20:06.264Z,102839.00
2022-11-11T00:23:10.064Z,102839.09
2022-11-11T00:26:17.872Z,102840.94
2022-11-11T00:29:01.566Z,102844.53
2022-11-11T00:32:05.717Z,102845.47
2022-11-11T00:35:11.288Z,102852.72
2022-11-11T00:38:08.743Z,102840.19
2022-11-11T00:40:53.920Z,102845.56
2022-11-11T00:43:39.612Z,102850.88
2022-11-11T00:46:43.292Z,102847.22
2022-11-11T00:49:47.435Z,102841.84
2022-11-11T00:52:32.870Z,102845.53
2022-11-11T00:55:18.537Z,102851.75
2022-11-11T00:58:03.938Z,102843.72
2022-11-11T01:00:55.666Z,102843.63
2022-11-11T01:03:41.704Z,102841.81
2022-11-11T01:06:27.974Z,102842.59
2022-11-11T01:09:13.393Z,102835.44
2022-11-11T01:11:59.223Z,102832.66
2022-11-11T01:14:44.729Z,102835.41
2022-11-11T01:17:30.356Z,102831.81
2022-11-11T01:20:16.373Z,102835.34
2022-11-11T01:23:02.104Z,102828.19
2022-11-11T01:25:47.638Z,102827.25
2022-11-11T01:28:34.128Z,102835.28
2022-11-11T01:31:22.953Z,102832.59
2022-11-11T01:34:08.843Z,102839.75
2022-11-11T01:36:54.544Z,102831.72
2022-11-11T01:39:40.211Z,102835.41
2022-11-11T01:42:26.246Z,102830.97
2022-11-11T01:45:42.491Z,102834.56
2022-11-11T01:48:53.043Z,102845.28
2022-11-11T01:52:04.905Z,102842.69
2022-11-11T01:55:08.090Z,102836.50
2022-11-11T01:58:01.352Z,102832.06
2022-11-11T02:00:47.369Z,102831.22
2022-11-11T02:03:40.527Z,102840.19
2022-11-11T02:06:28.209Z,102843.91
2022-11-11T02:09:14.109Z,102852.88
2022-11-11T02:12:23.026Z,102851.97
2022-11-11T02:15:09.482Z,102860.00
2022-11-11T02:17:55.032Z,102866.25
2022-11-11T02:20:44.603Z,102856.44
2022-11-11T02:23:44.627Z,102856.53
2022-11-11T02:26:33.650Z,102853.84
2022-11-11T02:29:21.850Z,102856.44
2022-11-11T02:32:07.352Z,102866.19
2022-11-11T02:34:52.795Z,102867.03
2022-11-11T02:37:38.281Z,102857.19
2022-11-11T02:40:39.232Z,102857.19
2022-11-11T02:43:25.602Z,102867.91
2022-11-11T02:46:11.259Z,102876.91
2022-11-11T02:48:56.647Z,102874.22
2022-11-11T02:51:42.600Z,102876.97
2022-11-11T02:54:28.865Z,102879.66
2022-11-11T02:57:14.527Z,102866.25
2022-11-11T03:00:01.315Z,102870.63
2022-11-11T03:02:47.153Z,102869.84
2022-11-11T03:05:33.007Z,102871.59
2022-11-11T03:08:19.216Z,102873.28
2022-11-11T03:11:05.317Z,102868.78
2022-11-11T03:13:50.996Z,102867.81
2022-11-11T03:16:56.083Z,102869.50
2022-11-11T03:19:41.717Z,102871.28
2022-11-11T03:25:40.652Z,102868.41
2022-11-11T03:28:26.520Z,102868.41
2022-11-11T03:31:12.140Z,102872.00
2022-11-11T03:34:17.629Z,102876.38
2022-11-11T03:37:24.725Z,102880.94
2022-11-11T03:40:10.804Z,102891.53
2022-11-11T03:43:01.194Z,102888.81
2022-11-11T03:45:50.650Z,102891.44
2022-11-11T03:48:36.409Z,102897.59
2022-11-11T03:51:22.474Z,102887.69
2022-11-11T03:54:08.057Z,102898.31
2022-11-11T03:57:14.231Z,102884.91
2022-11-11T03:59:59.824Z,102891.13
2022-11-11T04:03:03.931Z,102890.16
2022-11-11T04:06:08.476Z,102895.53
2022-11-11T04:09:12.969Z,102900.81
2022-11-11T04:11:58.697Z,102898.13
2022-11-11T04:15:02.885Z,102897.16
2022-11-11T04:17:48.837Z,102907.81
2022-11-11T04:20:53.178Z,102899.69
2022-11-11T04:23:38.820Z,102897.00
2022-11-11T04:26:24.415Z,102902.34
2022-11-11T04:29:28.306Z,102912.16
2022-11-11T04:32:49.502Z,102905.84
2022-11-11T04:35:35.042Z,102907.69
2022-11-11T04:38:39.444Z,102910.31
2022-11-11T04:41:36.106Z,102913.06
2022-11-11T04:44:48.806Z,102905.91
2022-11-11T04:47:34.411Z,102908.56
2022-11-11T04:50:19.572Z,102900.53
2022-11-11T04:53:10.870Z,102912.06
2022-11-11T04:56:14.967Z,102911.16
2022-11-11T04:59:20.258Z,102912.03
2022-11-11T05:02:24.519Z,102914.63
2022-11-11T05:05:10.279Z,102910.97
2022-11-11T05:08:15.012Z,102913.59
2022-11-11T05:11:00.597Z,102904.63
2022-11-11T05:14:05.343Z,102919.72
2022-11-11T05:17:16.206Z,102923.34
2022-11-11T05:20:20.752Z,102908.19
2022-11-11T05:23:06.605Z,102912.66
2022-11-11T05:25:52.699Z,102920.66
2022-11-11T05:28:38.029Z,102917.91
2022-11-11T05:31:24.725Z,102915.16
2022-11-11T05:34:10.309Z,102920.47
2022-11-11T05:36:57.299Z,102923.16
2022-11-11T05:39:43.892Z,102930.22
2022-11-11T05:42:29.455Z,102933.78
2022-11-11T05:45:15.113Z,102935.50
2022-11-11T05:48:04.218Z,102925.66
2022-11-11T05:50:50.138Z,102926.44
2022-11-11T05:53:35.759Z,102929.13
2022-11-11T05:56:21.305Z,102937.16
2022-11-11T05:59:08.436Z,102942.53
2022-11-11T06:01:55.287Z,102951.44
2022-11-11T06:04:41.068Z,102956.72
2022-11-11T06:07:29.833Z,102955.81
2022-11-11T06:10:30.588Z,102956.69
2022-11-11T06:13:16.077Z,102947.78
2022-11-11T06:16:02.153Z,102959.34
2022-11-11T06:18:47.985Z,102954.00
2022-11-11T06:21:53.704Z,102965.63
2022-11-11T06:24:39.070Z,102959.38
2022-11-11T06:27:24.455Z,102969.22
2022-11-11T06:30:44.126Z,102972.75
2022-11-11T06:33:16.234Z,102968.28
2022-11-11T06:36:02.657Z,102975.31
2022-11-11T06:38:48.541Z,102982.47
2022-11-11T06:41:33.805Z,102977.97
2022-11-11T06:44:19.513Z,102973.41
2022-11-11T06:47:05.437Z,102976.06
2022-11-11T06:49:51.113Z,102976.94
2022-11-11T06:52:36.821Z,102976.94
2022-11-11T06:55:22.529Z,102984.91
2022-11-11T06:58:16.599Z,102977.78
2022-11-11T07:01:06.134Z,102979.47
2022-11-11T07:03:51.585Z,102976.75
2022-11-11T07:06:37.114Z,102975.88
2022-11-11T07:09:23.479Z,102974.94
2022-11-11T07:12:09.259Z,102971.28
2022-11-11T07:14:54.543Z,102973.88
2022-11-11T07:17:39.979Z,102969.38
2022-11-11T07:20:25.514Z,102975.59
2022-11-11T07:23:11.516Z,102977.25
2022-11-11T07:25:56.956Z,102981.75
2022-11-11T07:28:42.636Z,102988.84
2022-11-11T07:31:28.657Z,102978.03
2022-11-11T07:34:14.245Z,102983.38
2022-11-11T07:36:59.928Z,102976.16
2022-11-11T07:39:45.579Z,102989.47
2022-11-11T07:42:31.985Z,102980.53
2022-11-11T07:45:17.800Z,102980.50
2022-11-11T07:48:03.424Z,102978.59
2022-11-11T07:50:49.066Z,102975.84
2022-11-11T07:53:34.585Z,102971.19
2022-11-11T07:56:20.103Z,102972.91
2022-11-11T07:59:05.822Z,102981.66
2022-11-11T08:01:51.327Z,102981.66
2022-11-11T08:04:36.877Z,102982.44
2022-11-11T08:07:23.627Z,102988.59
2022-11-11T08:10:11.177Z,102991.28
2022-11-11T08:13:15.574Z,103000.09
2022-11-11T08:16:02.893Z,103000.16
2022-11-11T08:18:48.261Z,103008.09
2022-11-11T08:21:34.327Z,103006.25
2022-11-11T08:27:25.607Z,103016.88
2022-11-11T08:30:11.708Z,103016.00
2022-11-11T08:36:17.640Z,103011.53
2022-11-11T08:39:07.181Z,103019.56
2022-11-11T08:41:53.019Z,103014.41
2022-11-11T08:44:39.187Z,103018.13
2022-11-11T08:47:25.192Z,103024.41
2022-11-11T08:50:11.486Z,103026.28
2022-11-11T08:52:57.604Z,103027.03
2022-11-11T08:55:43.159Z,103030.53
2022-11-11T08:58:29.203Z,103030.97
2022-11-11T09:01:15.720Z,103039.78
2022-11-11T09:04:16.670Z,103047.75
2022-11-11T09:07:09.480Z,103040.50
2022-11-11T09:09:55.859Z,103043.09
2022-11-11T09:12:41.207Z,103044.06
2022-11-11T09:15:27.522Z,103048.41
2022-11-11T09:18:13.090Z,103041.13
2022-11-11T09:21:00.126Z,103041.84
2022-11-11T09:23:45.846Z,103036.34
2022-11-11T09:26:32.165Z,103035.38
2022-11-11T09:29:18.452Z,103030.81
2022-11-11T09:32:05.533Z,103031.63
2022-11-11T09:34:51.271Z,103042.28
2022-11-11T09:37:37.505Z,103040.50
2022-11-11T09:40:29.722Z,103045.66
2022-11-11T09:43:48.263Z,103049.00
2022-11-11T09:46:40.978Z,103053.25
2022-11-11T09:50:00.211Z,103046.97
2022-11-11T09:53:11.702Z,103053.25
2022-11-11T09:56:29.641Z,103049.63
2022-11-11T09:59:29.232Z,103052.91
2022-11-11T10:02:42.053Z,103052.66
2022-11-11T10:05:45.213Z,103041.72
2022-11-11T10:08:45.531Z,103045.97
2022-11-11T10:11:47.844Z,103043.91
2022-11-11T10:14:45.592Z,103044.59
2022-11-11T10:17:40.871Z,103040.72
2022-11-11T10:20:33.029Z,103039.41
2022-11-11T10:23:26.947Z,103039.91
2022-11-11T10:26:21.280Z,103034.31
2022-11-11T10:29:19.119Z,103037.75
2022-11-11T10:32:16.350Z,103036.72
2022-11-11T10:35:31.008Z,103032.41
2022-11-11T10:38:35.790Z,103034.97
2022-11-11T10:41:37.787Z,103029.50
2022-11-11T10:44:27.971Z,103019.69
2022-11-11T10:47:41.361Z,103023.25
2022-11-11T10:50:36.784Z,103018.63
2022-11-11T10:53:44.430Z,103006.00
2022-11-11T10:57:15.967Z,103001.66
2022-11-11T11:00:09.894Z,102999.59
2022-11-11T11:03:26.068Z,103003.13
2022-11-11T11:06:26.861Z,102992.22
2022-11-11T11:09:35.330Z,102989.31
2022-11-11T11:12:40.329Z,102990.13
2022-11-11T11:15:29.181Z,102989.06
2022-11-11T11:18:19.111Z,102984.34
2022-11-11T11:21:08.789Z,102993.16
2022-11-11T11:23:54.815Z,102995.84
2022-11-11T11:26:51.752Z,102986.66
2022-11-11T11:29:43.910Z,102990.06
2022-11-11T11:32:32.668Z,102978.34
2022-11-11T11:35:35.636Z,102983.38
2022-11-11T11:38:21.257Z,102980.34
2022-11-11T11:41:06.933Z,102982.78
2022-11-11T11:43:52.179Z,102981.69
2022-11-11T11:46:41.116Z,102980.78
2022-11-11T11:50:07.620Z,102976.19
2022-11-11T11:53:38.916Z,102974.19
2022-11-11T11:56:30.571Z,102963.47
2022-11-11T11:59:45.504Z,102970.63
2022-11-11T12:03:09.552Z,102963.63
2022-11-11T12:06:26.269Z,102968.19
2022-11-11T12:09:37.859Z,102969.88
2022-11-11T12:12:52.766Z,102959.91
2022-11-11T12:16:06.078Z,102956.28
2022-11-11T12:19:26.161Z,102948.88
2022-11-11T12:22:30.781Z,102959.50
2022-11-11T12:25:58.224Z,102951.44
2022-11-11T12:28:58.869Z,102945.91
2022-11-11T12:32:20.021Z,102940.53
2022-11-11T12:35:27.207Z,102947.66
2022-11-11T12:38:24.565Z,102943.91
2022-11-11T12:41:56.522Z,102933.91
2022-11-11T12:45:19.917Z,102931.97
2022-11-11T12:48:05.398Z,102923.00
2022-11-11T12:51:39.090Z,102923.81
2022-11-11T12:54:43.555Z,102931.69
2022-11-11T12:57:46.570Z,102930.69
2022-11-11T13:00:38.922Z,102925.38
2022-11-11T13:03:46.909Z,102929.81
2022-11-11T13:07:01.629Z,102926.03
2022-11-11T13:10:12.803Z,102926.63
2022-11-11T13:13:03.865Z,102931.88
2022-11-11T13:15:49.939Z,102927.22
2022-11-11T13:19:20.539Z,102934.28
2022-11-11T13:22:23.678Z,102925.09
2022-11-11T13:25:21.498Z,102922.41
2022-11-11T13:28:18.302Z,102922.06
2022-11-11T13:31:25.202Z,102925.34
2022-11-11T13:34:15.180Z,102917.84
2022-11-11T13:37:05.635Z,102920.31
2022-11-11T13:39:57.693Z,102922.84
2022-11-11T13:42:51.522Z,102916.50
2022-11-11T13:45:42.536Z,102921.91
2022-11-11T13:48:35.683Z,102911.03
2022-11-11T13:51:43.603Z,102908.31
2022-11-11T13:54:48.802Z,102924.34
2022-11-11T13:57:36.133Z,102920.75
2022-11-11T14:00:21.608Z,102924.22
2022-11-11T14:03:22.048Z,102919.63
2022-11-11T14:06:37.187Z,102921.38
2022-11-11T14:09:58.425Z,102921.38
2022-11-11T14:12:55.403Z,102924.94
2022-11-11T14:15:43.518Z,102925.03
2022-11-11T14:18:41.644Z,102929.47
2022-11-11T14:21:54.374Z,102931.38
2022-11-11T14:24:46.344Z,102926.19
2022-11-11T14:27:34.121Z,102928.88
2022-11-11T14:30:48.733Z,102928.09
2022-11-11T14:34:27.993Z,102917.38
2022-11-11T14:38:26.383Z,102922.91
2022-11-11T14:41:42.384Z,102922.19
2022-11-11T14:44:28.293Z,102917.91
2022-11-11T14:47:13.551Z,102918.00
2022-11-11T14:50:00.180Z,102913.53
2022-11-11T14:52:46.758Z,102913.63
2022-11-11T14:58:38.088Z,102912.06
2022-11-11T15:01:25.981Z,102914.78
2022-11-11T15:04:12.711Z,102919.38
2022-11-11T15:07:02.874Z,102915.88
2022-11-11T15:10:14.580Z,102914.19
2022-11-11T15:13:55.606Z,102915.28
2022-11-11T15:17:08.776Z,102920.00
2022-11-11T15:20:30.920Z,102919.34
2022-11-11T15:23:45.204Z,102910.59
2022-11-11T15:27:05.260Z,102911.69
2022-11-11T15:30:13.557Z,102914.50
2022-11-11T15:33:28.509Z,102901.28
2022-11-11T15:36:41.525Z,102908.66
2022-11-11T15:39:41.906Z,102906.97
2022-11-11T15:42:39.856Z,102908.94
2022-11-11T15:45:34.038Z,102909.06
2022-11-11T15:48:29.005Z,102910.25
2022-11-11T15:51:21.350Z,102911.31
2022-11-11T15:54:16.293Z,102919.66
2022-11-11T15:57:26.257Z,102913.53
2022-11-11T16:00:33.254Z,102910.22
2022-11-11T16:03:32.493Z,102907.66
2022-11-11T16:06:19.043Z,102909.63
2022-11-11T16:09:05.124Z,102913.41
2022-11-11T16:11:54.777Z,102913.53
2022-11-11T16:14:47.237Z,102912.78
2022-11-11T16:17:43.383Z,102923.69
2022-11-11T16:20:43.298Z,102915.84
2022-11-11T16:23:30.658Z,102915.09
2022-11-11T16:26:20.693Z,102916.09
2022-11-11T16:29:16.128Z,102925.22
2022-11-11T16:32:03.650Z,102925.34
2022-11-11T16:34:54.141Z,102922.78
2022-11-11T16:37:54.209Z,102925.59
2022-11-11T16:40:43.945Z,102923.91
2022-11-11T16:43:32.789Z,102920.47
2022-11-11T16:46:36.907Z,102924.16
2022-11-11T16:49:38.743Z,102923.41
2022-11-11T16:52:25.168Z,102925.34
2022-11-11T16:55:37.957Z,102917.50
2022-11-11T16:58:23.254Z,102924.00
2022-11-11T17:01:10.126Z,102919.69
2022-11-11T17:03:59.320Z,102923.34
2022-11-11T17:06:56.721Z,102919.91
2022-11-11T17:09:42.922Z,102918.22
2022-11-11T17:12:32.352Z,102915.72
2022-11-11T17:15:20.870Z,102916.72
2022-11-11T17:18:09.001Z,102911.47
2022-11-11T17:20:55.901Z,102911.59
2022-11-11T17:23:41.552Z,102921.50
2022-11-11T17:26:26.888Z,102923.44
2022-11-11T17:29:12.521Z,102921.69
2022-11-11T17:31:57.884Z,102925.38
2022-11-11T17:34:43.626Z,102922.81
2022-11-11T17:37:28.804Z,102939.03
2022-11-11T17:40:18.907Z,102930.31
2022-11-11T17:43:04.495Z,102936.59
2022-11-11T17:45:51.629Z,102939.38
2022-11-11T17:48:37.347Z,102945.78
2022-11-11T17:51:26.253Z,102955.75
2022-11-11T17:54:11.487Z,102953.19
2022-11-11T17:56:57.122Z,102963.16
2022-11-11T17:59:43.234Z,102967.69
2022-11-11T18:02:28.819Z,102974.03
2022-11-11T18:05:14.543Z,102988.44
2022-11-11T18:07:59.787Z,102978.72
2022-11-11T18:10:45.707Z,102980.59
2022-11-11T18:13:32.125Z,102969.09
2022-11-11T18:16:18.800Z,102958.53
2022-11-11T18:19:05.022Z,102963.94
2022-11-11T18:21:50.759Z,102965.75
2022-11-11T18:24:36.449Z,102968.53
2022-11-11T18:27:22.181Z,102964.19
2022-11-11T18:30:09.555Z,102965.19
2022-11-11T18:32:55.329Z,102968.00
2022-11-11T18:35:40.988Z,102961.88
2022-11-11T18:38:30.297Z,102960.13
2022-11-11T18:41:19.370Z,102972.69
2022-11-11T18:44:04.716Z,102972.78
2022-11-11T18:46:50.031Z,102969.34
2022-11-11T18:49:35.613Z,102972.06
2022-11-11T18:52:21.256Z,102977.41
2022-11-11T18:55:07.156Z,102983.81
2022-11-11T18:57:52.740Z,102968.69
2022-11-11T19:00:38.406Z,102977.63
2022-11-11T19:03:24.059Z,102974.16
2022-11-11T19:06:11.183Z,102984.91
2022-11-11T19:08:59.771Z,102982.28
2022-11-11T19:11:47.030Z,102979.72
2022-11-11T19:14:32.486Z,102972.72
2022-11-11T19:17:17.859Z,102975.59
2022-11-11T19:20:05.810Z,102974.75
2022-11-11T19:22:52.038Z,102974.81
2022-11-11T19:25:39.127Z,102982.03
2022-11-11T19:28:25.086Z,102969.59
2022-11-11T19:31:19.594Z,102978.63
2022-11-11T19:34:05.733Z,102989.41
2022-11-11T19:36:51.387Z,102991.34
2022-11-11T19:39:39.215Z,102997.66
2022-11-11T19:42:25.579Z,103003.09
2022-11-11T19:45:11.175Z,102998.69
2022-11-11T19:47:56.742Z,102997.91
2022-11-11T19:50:42.741Z,102997.06
2022-11-11T19:53:28.537Z,102997.13
2022-11-11T19:56:18.498Z,102998.03
2022-11-11T19:59:04.468Z,102994.56
2022-11-11T20:01:51.918Z,102998.19
2022-11-11T20:04:38.297Z,103001.84
2022-11-11T20:07:23.948Z,103001.94
2022-11-11T20:10:10.572Z,103003.81
2022-11-11T20:12:56.571Z,102998.53
2022-11-11T20:15:42.670Z,103000.38
2022-11-11T20:18:29.903Z,103004.03
2022-11-11T20:21:15.872Z,103004.94
2022-11-11T20:24:01.469Z,103006.75
2022-11-11T20:26:51.835Z,103009.44
2022-11-11T20:29:38.044Z,103011.31
2022-11-11T20:32:23.725Z,103022.13
2022-11-11T20:35:09.447Z,103034.69
2022-11-11T20:37:54.898Z,103036.53
2022-11-11T20:40:40.695Z,103037.47
2022-11-11T20:43:29.407Z,103035.72
2022-11-11T20:46:18.921Z,103035.75
2022-11-11T20:49:04.656Z,103040.34
2022-11-11T20:51:50.912Z,103040.38
2022-11-11T20:54:38.139Z,103045.84
2022-11-11T20:57:23.451Z,103040.56
2022-11-11T21:00:10.091Z,103048.69
2022-11-11T21:02:55.752Z,103051.41
2022-11-11T21:05:41.928Z,103046.09
2022-11-11T21:08:31.391Z,103048.81
2022-11-11T21:11:22.310Z,103042.63
2022-11-11T21:14:08.606Z,103041.75
2022-11-11T21:16:54.300Z,103035.56
2022-11-11T21:19:39.533Z,103033.84
2022-11-11T21:22:25.419Z,103034.84
2022-11-11T21:25:10.889Z,103026.88
2022-11-11T21:27:56.562Z,103026.91
2022-11-11T21:30:42.078Z,103021.53
2022-11-11T21:33:28.195Z,103007.31
2022-11-11T21:36:13.902Z,103015.34
2022-11-11T21:39:03.947Z,103011.78
2022-11-11T21:41:51.190Z,103009.97
2022-11-11T21:44:36.328Z,103013.66
2022-11-11T21:47:21.816Z,103003.03
2022-11-11T21:50:07.741Z,103000.44
2022-11-11T21:52:53.169Z,103010.31
2022-11-11T21:55:38.923Z,102997.84
2022-11-11T21:58:24.897Z,103001.47
2022-11-11T22:01:41.803Z,103006.91
2022-11-11T22:04:27.481Z,103006.03
2022-11-11T22:07:18.832Z,103003.41
2022-11-11T22:10:05.381Z,103006.19
2022-11-11T22:12:52.697Z,103008.97
2022-11-11T22:15:38.575Z,103007.25
2022-11-11T22:18:24.646Z,103002.03
2022-11-11T22:21:18.937Z,103000.28
2022-11-11T22:24:08.930Z,103008.41
2022-11-11T22:26:54.519Z,103011.97
2022-11-11T22:29:39.961Z,103006.63
2022-11-11T22:32:25.912Z,102997.78
2022-11-11T22:35:11.759Z,103001.34
2022-11-11T22:37:57.283Z,103007.63
2022-11-11T22:40:43.534Z,102997.88
2022-11-11T22:43:52.922Z,102994.38
2022-11-11T22:46:36.610Z,102999.81
2022-11-11T22:49:22.812Z,102996.34
2022-11-11T22:52:08.267Z,102993.78
2022-11-11T22:54:53.812Z,103007.22
2022-11-11T22:57:39.544Z,103001.97
2022-11-11T23:00:25.346Z,102998.41
2022-11-11T23:03:11.032Z,103001.09
2022-11-11T23:06:04.790Z,102990.47
2022-11-11T23:08:51.324Z,102984.25
2022-11-11T23:11:40.454Z,102990.53
2022-11-11T23:14:25.867Z,102981.66
2022-11-11T23:17:12.111Z,102984.31
2022-11-11T23:19:57.555Z,102987.06
2022-11-11T23:22:43.601Z,102981.69
2022-11-11T23:25:29.465Z,102976.44
2022-11-11T23:28:15.169Z,102985.34
2022-11-11T23:31:10.860Z,102979.13
2022-11-11T23:34:00.740Z,102969.34
2022-11-11T23:36:46.261Z,102971.19
2022-11-11T23:39:31.636Z,102960.53
2022-11-11T23:42:17.427Z,102961.47
2022-11-11T23:45:02.993Z,102965.91
2022-11-11T23:47:48.611Z,102957.00
2022-11-11T23:50:34.152Z,102964.16
2022-11-11T23:53:20.520Z,102965.91
2022-11-11T23:56:06.369Z,102962.41
2022-11-11T23:58:52.097Z,102959.75
